Time;durP1;ratioP1;P1;durP2;ratioP2;P2;SDS_P1;SDS_P2;PMS_P1;PMS_P2;Temp;Humidity;BMP_temperature;BMP_pressure;BME280_temperature;BME280_humidity;BME280_pressure;Samples;Min_cycle;Max_cycle;Signal;HPM_P1;HPM_P2
2021/05/15 00:00:03;;;;;;;5.37;3.65;;;;;;;11.87;75.52;97390.70;1701598;84;21119;-75
2021/05/15 00:02:29;;;;;;;5.25;3.87;;;;;;;11.90;75.84;97383.89;1701703;83;21018;-76
2021/05/15 00:04:55;;;;;;;4.95;3.62;;;;;;;11.83;76.77;97382.38;1701420;84;21544;-76
2021/05/15 00:07:21;;;;;;;4.00;3.25;;;;;;;11.80;76.27;97378.13;1701513;83;20882;-76
2021/05/15 00:09:47;;;;;;;4.05;3.45;;;;;;;11.79;75.98;97384.08;1701611;82;21037;-76
2021/05/15 00:12:13;;;;;;;4.50;3.50;;;;;;;11.75;75.96;97377.63;1718194;83;20991;-76
2021/05/15 00:14:39;;;;;;;6.17;3.55;;;;;;;11.71;75.83;97378.55;1718392;82;20968;-76
2021/05/15 00:17:05;;;;;;;4.53;3.30;;;;;;;11.68;76.10;97375.87;1689594;83;20888;-76
2021/05/15 00:19:31;;;;;;;5.15;3.92;;;;;;;11.62;76.29;97376.27;1718342;82;20901;-76
2021/05/15 00:21:57;;;;;;;4.92;3.92;;;;;;;11.65;77.38;97379.19;1718218;83;21007;-76
2021/05/15 00:24:23;;;;;;;5.37;3.83;;;;;;;11.67;76.35;97375.62;1718324;82;21151;-76
2021/05/15 00:26:49;;;;;;;5.55;3.83;;;;;;;11.66;76.53;97380.00;1718156;83;21419;-76
2021/05/15 00:29:15;;;;;;;5.50;3.90;;;;;;;11.68;76.35;97381.84;1718232;83;20972;-76
2021/05/15 00:31:41;;;;;;;4.20;3.27;;;;;;;11.69;76.57;97383.45;1718316;83;20971;-76
2021/05/15 00:34:07;;;;;;;4.92;3.27;;;;;;;11.64;76.54;97384.38;1718377;83;20920;-76
2021/05/15 00:36:33;;;;;;;4.53;3.27;;;;;;;11.63;76.99;97392.82;1718311;82;21272;-76
2021/05/15 00:38:59;;;;;;;4.15;3.55;;;;;;;11.65;76.93;97388.69;1689838;83;20980;-76
2021/05/15 00:41:25;;;;;;;6.47;3.58;;;;;;;11.67;76.60;97389.73;1718182;83;21479;-76
2021/05/15 00:44:09;;;;;;;6.05;3.30;;;;;;;11.72;76.39;97393.72;1689832;83;20897;-76
2021/05/15 00:46:28;;;;;;;9.10;3.15;;;;;;;11.73;76.42;97388.55;1714009;83;21075;-74
2021/05/15 00:48:53;;;;;;;;;;;;;;;11.65;76.13;97391.41;1720925;83;21096;-75
2021/05/15 00:51:22;;;;;;;3.92;3.05;;;;;;;11.59;76.30;97394.76;1718701;83;20279;-75
2021/05/15 00:53:48;;;;;;;4.10;3.30;;;;;;;11.60;76.44;97395.56;1718447;83;21063;-75
2021/05/15 00:56:14;;;;;;;7.60;4.40;;;;;;;11.62;76.86;97402.84;1718317;83;20892;-75
2021/05/15 00:58:40;;;;;;;5.20;3.72;;;;;;;11.68;76.69;97394.06;1718315;82;21097;-74
2021/05/15 01:01:07;;;;;;;4.47;4.05;;;;;;;11.65;77.18;97391.96;1718331;82;21127;-74
2021/05/15 01:03:33;;;;;;;5.85;4.10;;;;;;;11.62;77.61;97391.19;1718132;82;21416;-75
2021/05/15 01:06:04;;;;;;;6.00;3.75;;;;;;;11.62;77.15;97393.34;1718183;82;20923;-75
2021/05/15 01:08:30;;;;;;;7.65;4.42;;;;;;;11.63;77.50;97390.11;1718432;82;20948;-75
2021/05/15 01:10:56;;;;;;;7.67;4.28;;;;;;;11.61;78.35;97395.01;1718299;83;21039;-75
2021/05/15 01:13:28;;;;;;;6.33;4.12;;;;;;;11.59;77.69;97396.67;1718195;83;21180;-75
2021/05/15 01:15:51;;;;;;;7.37;3.72;;;;;;;11.56;77.69;97387.79;1717532;83;21401;-75
2021/05/15 01:18:17;;;;;;;7.22;3.58;;;;;;;11.53;77.47;97394.59;1718193;83;20853;-75
2021/05/15 01:20:43;;;;;;;6.80;3.90;;;;;;;11.50;78.96;97391.70;1718312;82;20888;-75
2021/05/15 01:23:09;;;;;;;4.67;2.92;;;;;;;11.47;78.56;97390.95;1718382;83;21054;-75
2021/05/15 01:25:35;;;;;;;4.70;3.42;;;;;;;11.46;77.99;97385.28;1718178;83;21823;-75
2021/05/15 01:28:00;;;;;;;5.17;4.10;;;;;;;11.45;78.26;97385.00;1718108;83;20952;-75
2021/05/15 01:30:26;;;;;;;5.80;3.85;;;;;;;11.37;78.36;97391.95;1718308;82;20905;-75
2021/05/15 01:32:52;;;;;;;4.62;3.42;;;;;;;11.40;78.42;97390.53;1718232;82;20903;-75
2021/05/15 01:35:18;;;;;;;4.50;3.42;;;;;;;11.41;78.38;97395.66;1689946;83;20917;-75
2021/05/15 01:37:44;;;;;;;5.33;4.05;;;;;;;11.40;78.17;97391.89;1718405;83;21088;-75
2021/05/15 01:40:11;;;;;;;8.33;3.98;;;;;;;11.41;78.19;97390.23;1718238;83;20959;-75
2021/05/15 01:42:37;;;;;;;7.25;4.50;;;;;;;11.39;78.38;97391.64;1718158;83;21042;-75
2021/05/15 01:45:06;;;;;;;4.53;3.47;;;;;;;11.31;78.40;97387.71;1718250;83;21055;-75
2021/05/15 01:47:37;;;;;;;5.60;3.50;;;;;;;11.24;78.75;97394.87;1718300;82;21460;-74
2021/05/15 01:50:05;;;;;;;4.78;3.17;;;;;;;11.24;78.86;97395.44;1717797;83;21236;-74
2021/05/15 01:52:31;;;;;;;4.62;3.52;;;;;;;11.19;79.00;97394.16;1718300;82;21040;-74
2021/05/15 01:54:56;;;;;;;5.72;3.67;;;;;;;11.23;78.94;97394.63;1718310;83;21586;-74
2021/05/15 01:57:22;;;;;;;8.90;3.87;;;;;;;11.24;78.92;97392.17;1718130;83;20837;-74
2021/05/15 01:59:48;;;;;;;6.45;3.77;;;;;;;11.27;78.83;97392.11;1718397;83;20979;-74
2021/05/15 02:02:14;;;;;;;8.60;4.25;;;;;;;11.35;78.70;97385.99;1718147;83;21794;-74
2021/05/15 02:04:40;;;;;;;7.10;4.10;;;;;;;11.43;78.62;97388.02;1718230;83;20996;-74
2021/05/15 02:07:06;;;;;;;5.28;4.12;;;;;;;11.46;78.17;97390.70;1689705;83;20925;-74
2021/05/15 02:09:32;;;;;;;6.28;3.80;;;;;;;11.38;78.03;97389.48;1718269;83;20936;-74
2021/05/15 02:11:58;;;;;;;6.72;3.55;;;;;;;11.37;78.06;97391.14;1729774;81;20987;-74
2021/05/15 02:14:24;;;;;;;4.50;3.77;;;;;;;11.33;78.27;97391.48;1737058;82;21217;-74
2021/05/15 02:16:50;;;;;;;6.80;3.83;;;;;;;11.21;78.58;97390.61;1736950;82;20915;-74
2021/05/15 02:19:16;;;;;;;6.30;4.17;;;;;;;11.16;78.75;97387.98;1736846;82;20899;-74
2021/05/15 02:21:42;;;;;;;5.03;3.30;;;;;;;11.10;78.98;97387.25;1736899;82;20884;-74
2021/05/15 02:24:09;;;;;;;7.87;4.55;;;;;;;11.04;79.04;97390.38;1736879;82;21039;-74
2021/05/15 02:26:35;;;;;;;11.30;4.97;;;;;;;10.99;79.10;97395.32;1737175;82;21132;-74
2021/05/15 02:29:02;;;;;;;6.80;4.80;;;;;;;10.98;79.14;97393.72;1736755;81;21480;-74
2021/05/15 02:31:27;;;;;;;6.97;4.20;;;;;;;10.97;79.22;97389.41;1736911;82;21051;-74
2021/05/15 02:33:53;;;;;;;7.05;4.20;;;;;;;10.91;79.08;97393.28;1736910;82;20915;-74
2021/05/15 02:36:19;;;;;;;5.72;4.65;;;;;;;10.89;79.13;97397.66;1737021;82;20958;-74
2021/05/15 02:38:45;;;;;;;8.45;4.97;;;;;;;10.83;79.24;97398.83;1736925;82;21916;-74
2021/05/15 02:41:11;;;;;;;8.00;4.95;;;;;;;10.81;79.48;97396.98;1736850;82;20822;-74
2021/05/15 02:43:37;;;;;;;8.88;5.28;;;;;;;10.71;79.29;97402.02;1737203;82;20978;-74
2021/05/15 02:46:03;;;;;;;7.55;4.97;;;;;;;10.69;79.47;97398.00;1737023;81;20998;-74
2021/05/15 02:48:29;;;;;;;7.85;5.10;;;;;;;10.71;79.27;97398.50;1736812;82;20938;-74
2021/05/15 02:50:55;;;;;;;8.18;4.47;;;;;;;10.67;79.19;97406.39;1736818;82;21099;-74
2021/05/15 02:53:21;;;;;;;6.72;4.12;;;;;;;10.66;80.22;97409.41;1736968;81;20879;-74
2021/05/15 02:55:47;;;;;;;8.68;4.30;;;;;;;10.56;79.79;97402.80;1736867;82;21118;-74
2021/05/15 02:58:16;;;;;;;6.80;5.85;;;;;;;10.56;79.79;97402.80;1737040;82;20848;-74
2021/05/15 03:00:41;;;;;;;7.87;5.30;;;;;;;10.52;80.92;97403.14;1737110;81;21019;-76
2021/05/15 03:03:09;;;;;;;5.20;3.47;;;;;;;10.44;80.70;97401.89;1737020;82;21255;-75
2021/05/15 03:05:35;;;;;;;4.15;3.05;;;;;;;10.45;79.99;97398.09;1736874;82;21031;-75
2021/05/15 03:08:01;;;;;;;3.55;2.80;;;;;;;10.47;79.92;97401.85;1737047;82;20968;-75
2021/05/15 03:10:27;;;;;;;5.95;3.02;;;;;;;10.47;79.92;97401.85;1737618;82;20899;-75
2021/05/15 03:12:54;;;;;;;4.33;3.30;;;;;;;10.47;79.76;97407.27;1720715;81;21031;-75
2021/05/15 03:15:21;;;;;;;4.60;3.02;;;;;;;10.50;79.75;97413.44;1718306;82;21061;-75
2021/05/15 03:17:47;;;;;;;3.52;2.98;;;;;;;10.46;79.84;97415.95;1718183;82;21051;-75
2021/05/15 03:20:17;;;;;;;5.17;3.20;;;;;;;10.47;79.87;97414.04;1718470;82;21087;-75
2021/05/15 03:22:43;;;;;;;5.78;3.05;;;;;;;10.47;79.87;97414.04;1718104;83;21007;-76
2021/05/15 03:25:09;;;;;;;3.52;2.27;;;;;;;10.42;80.08;97405.42;1718450;82;21042;-76
2021/05/15 03:27:35;;;;;;;4.25;2.87;;;;;;;10.38;80.14;97406.57;1689956;83;21767;-76
2021/05/15 03:30:03;;;;;;;8.18;3.25;;;;;;;10.38;80.14;97406.57;1718345;83;21004;-76
2021/05/15 03:32:29;;;;;;;7.12;2.92;;;;;;;10.36;79.99;97407.42;1718314;82;21027;-75
2021/05/15 03:34:55;;;;;;;3.55;2.90;;;;;;;10.34;79.95;97408.79;1718534;83;20901;-75
2021/05/15 03:37:21;;;;;;;4.53;2.70;;;;;;;10.32;80.11;97410.98;1718437;83;20971;-75
2021/05/15 03:39:47;;;;;;;3.65;2.98;;;;;;;10.39;79.95;97406.83;1718380;82;21145;-76
2021/05/15 03:42:13;;;;;;;3.95;2.70;;;;;;;10.37;79.67;97408.22;1718307;82;20956;-75
2021/05/15 03:44:38;;;;;;;9.68;3.10;;;;;;;10.38;79.75;97404.41;1718385;82;20928;-75
2021/05/15 03:47:04;;;;;;;4.65;3.20;;;;;;;10.40;79.69;97409.78;1718479;83;20857;-75
2021/05/15 03:49:31;;;;;;;7.70;2.70;;;;;;;10.37;79.63;97407.67;1718370;82;21570;-75
2021/05/15 03:51:59;;;;;;;3.87;2.72;;;;;;;10.32;79.58;97413.15;1718221;83;21642;-75
2021/05/15 03:54:25;;;;;;;3.90;2.80;;;;;;;10.30;79.46;97411.29;1718283;83;21063;-76
2021/05/15 03:56:51;;;;;;;4.12;2.62;;;;;;;10.28;79.37;97404.02;1718452;82;20968;-76
2021/05/15 03:59:17;;;;;;;8.05;2.60;;;;;;;10.29;79.41;97414.30;1718306;82;21538;-75
2021/05/15 04:01:43;;;;;;;5.78;2.60;;;;;;;10.30;79.23;97416.70;1718377;82;20975;-75
2021/05/15 04:04:09;;;;;;;3.83;2.60;;;;;;;10.29;79.11;97417.00;1718312;82;20969;-75
2021/05/15 04:06:35;;;;;;;4.85;3.35;;;;;;;10.24;79.29;97416.51;1718608;82;20849;-75
2021/05/15 04:09:01;;;;;;;4.90;2.22;;;;;;;10.24;79.25;97423.83;1718428;83;20893;-75
2021/05/15 04:11:34;;;;;;;5.47;2.70;;;;;;;10.16;79.38;97423.90;1720757;82;20955;-75
2021/05/15 04:13:58;;;;;;;4.17;3.15;;;;;;;10.12;79.59;97429.66;1735986;82;20959;-75
2021/05/15 04:18:48;;;;;;;7.92;3.60;;;;;;;10.19;79.59;97435.52;1737009;82;20939;-75
2021/05/15 04:21:14;;;;;;;5.22;3.67;;;;;;;10.21;79.46;97437.38;1737006;81;20899;-75
2021/05/15 04:23:40;;;;;;;6.87;4.80;;;;;;;10.24;79.38;97430.60;1737010;81;20903;-75
2021/05/15 04:26:06;;;;;;;10.23;7.15;;;;;;;10.33;79.33;97428.84;1712008;82;20920;-75
2021/05/15 04:28:32;;;;;;;6.85;4.87;;;;;;;10.49;79.43;97434.86;1711806;82;21775;-75
2021/05/15 04:30:58;;;;;;;8.15;4.72;;;;;;;10.59;79.43;97436.06;1737354;82;21030;-75
2021/05/15 04:33:25;;;;;;;9.85;5.12;;;;;;;10.69;79.36;97433.22;1736864;81;20920;-75
2021/05/15 04:35:52;;;;;;;8.13;5.10;;;;;;;10.86;78.76;97436.20;1737028;82;21046;-75
2021/05/15 04:38:18;;;;;;;10.05;5.40;;;;;;;10.86;78.76;97436.20;1711823;82;21067;-75
2021/05/15 04:40:44;;;;;;;8.95;6.17;;;;;;;10.93;78.72;97435.25;1736905;82;21562;-75
2021/05/15 04:43:10;;;;;;;7.50;5.35;;;;;;;11.05;78.28;97438.88;1736972;82;21521;-75
2021/05/15 04:45:36;;;;;;;8.70;4.78;;;;;;;11.13;78.11;97441.46;1737526;81;21078;-75
2021/05/15 04:48:03;;;;;;;5.70;4.70;;;;;;;11.21;78.09;97435.36;1711816;82;20856;-75
2021/05/15 04:50:29;;;;;;;6.30;3.98;;;;;;;11.26;77.74;97433.90;1737050;82;21506;-75
2021/05/15 04:52:55;;;;;;;7.70;3.92;;;;;;;11.28;77.37;97444.72;1737073;82;20994;-75
2021/05/15 04:55:20;;;;;;;6.90;5.70;;;;;;;11.27;77.16;97443.64;1711849;82;21608;-75
2021/05/15 04:57:46;;;;;;;8.28;4.78;;;;;;;11.28;77.09;97450.15;1736840;82;20960;-75
2021/05/15 05:00:13;;;;;;;8.90;4.42;;;;;;;11.36;76.86;97441.84;1736984;82;20971;-75
2021/05/15 05:02:39;;;;;;;6.65;4.10;;;;;;;11.43;76.90;97446.34;1737014;81;21004;-75
2021/05/15 05:05:07;;;;;;;6.03;4.35;;;;;;;11.58;76.41;97449.34;1737077;82;21327;-75
2021/05/15 05:07:33;;;;;;;6.08;4.67;;;;;;;11.67;75.89;97444.82;1736972;82;20975;-75
2021/05/15 05:09:59;;;;;;;7.83;5.20;;;;;;;11.72;75.33;97443.38;1737000;82;20982;-75
2021/05/15 05:12:25;;;;;;;11.00;8.28;;;;;;;11.77;75.36;97448.69;1702911;83;20872;-75
2021/05/15 05:14:51;;;;;;;13.05;8.43;;;;;;;11.87;75.11;97449.08;1718202;83;20972;-75
2021/05/15 05:17:17;;;;;;;6.85;4.42;;;;;;;12.00;74.59;97450.20;1718291;83;21086;-75
2021/05/15 05:19:43;;;;;;;4.50;3.17;;;;;;;12.12;74.53;97451.83;1718315;82;20984;-75
2021/05/15 05:22:09;;;;;;;9.53;3.45;;;;;;;12.22;74.29;97453.53;1718136;83;21507;-75
2021/05/15 05:24:35;;;;;;;6.53;3.67;;;;;;;12.38;74.57;97458.34;1718193;83;20956;-75
2021/05/15 05:27:02;;;;;;;5.12;3.77;;;;;;;12.63;73.39;97462.41;1718352;83;20888;-75
2021/05/15 05:29:28;;;;;;;6.22;3.67;;;;;;;12.75;72.76;97463.81;1718249;83;21814;-75
2021/05/15 05:31:55;;;;;;;6.45;4.42;;;;;;;12.83;71.95;97466.59;1718096;82;20993;-75
2021/05/15 05:34:21;;;;;;;7.37;4.85;;;;;;;12.92;71.58;97463.95;1718321;82;21464;-75
2021/05/15 05:36:47;;;;;;;6.70;3.90;;;;;;;13.00;70.98;97463.22;1718322;83;20873;-75
2021/05/15 05:39:19;;;;;;;7.00;3.83;;;;;;;13.06;70.91;97461.95;1718264;82;21040;-75
2021/05/15 05:41:46;;;;;;;8.65;4.08;;;;;;;13.17;70.01;97465.25;1718233;82;21081;-75
2021/05/15 05:44:12;;;;;;;4.22;3.40;;;;;;;13.23;69.85;97468.11;1718115;82;21032;-75
2021/05/15 05:46:38;;;;;;;5.67;3.37;;;;;;;13.40;68.94;97466.05;1718296;82;20912;-75
2021/05/15 05:49:04;;;;;;;5.65;3.83;;;;;;;13.46;68.71;97468.34;1718268;82;20980;-75
2021/05/15 05:51:29;;;;;;;9.58;4.75;;;;;;;13.53;68.90;97467.34;1718303;83;20897;-75
2021/05/15 05:53:55;;;;;;;7.90;3.62;;;;;;;13.67;68.12;97473.25;1718667;83;21320;-75
2021/05/15 05:56:21;;;;;;;5.08;3.45;;;;;;;13.79;68.19;97466.11;1718271;83;20936;-74
2021/05/15 05:58:47;;;;;;;7.03;3.05;;;;;;;13.89;67.74;97475.92;1718145;83;21499;-75
2021/05/15 06:01:14;;;;;;;3.83;2.55;;;;;;;13.96;67.17;97464.58;1718185;82;20912;-75
2021/05/15 06:03:40;;;;;;;5.62;2.83;;;;;;;14.09;67.31;97466.38;1718129;83;21040;-75
2021/05/15 06:06:07;;;;;;;4.87;2.85;;;;;;;14.21;66.65;97470.68;1718287;82;21881;-75
2021/05/15 06:08:32;;;;;;;6.37;2.70;;;;;;;14.30;66.74;97466.61;1718089;83;21017;-74
2021/05/15 06:10:59;;;;;;;4.62;3.27;;;;;;;14.53;67.13;97466.78;1718393;83;20983;-74
2021/05/15 06:13:24;;;;;;;7.62;3.55;;;;;;;14.70;66.66;97463.80;1718182;83;20964;-74
2021/05/15 06:15:50;;;;;;;3.17;2.80;;;;;;;14.95;65.47;97463.02;1718238;83;20924;-75
2021/05/15 06:18:16;;;;;;;9.03;2.98;;;;;;;15.05;63.70;97468.17;1718247;83;21103;-75
2021/05/15 06:20:43;;;;;;;6.47;2.95;;;;;;;15.13;63.40;97465.20;1718276;83;20912;-75
2021/05/15 06:23:09;;;;;;;6.30;3.15;;;;;;;15.20;63.12;97468.22;1718112;82;21511;-75
2021/05/15 06:25:35;;;;;;;5.25;2.90;;;;;;;15.22;63.09;97466.79;1718275;82;21583;-74
2021/05/15 06:28:01;;;;;;;4.42;3.98;;;;;;;15.34;62.97;97466.69;1718240;82;20857;-74
2021/05/15 06:30:27;;;;;;;6.15;3.42;;;;;;;15.47;61.90;97461.61;1718179;83;21188;-74
2021/05/15 06:32:53;;;;;;;8.55;5.10;;;;;;;15.53;62.02;97459.73;1718254;82;20976;-74
2021/05/15 06:35:19;;;;;;;5.58;3.50;;;;;;;15.64;62.29;97464.90;1718341;82;20924;-75
2021/05/15 06:37:45;;;;;;;2.95;2.08;;;;;;;15.75;63.03;97466.14;1718309;83;21000;-75
2021/05/15 06:40:11;;;;;;;6.97;2.70;;;;;;;15.86;62.00;97454.28;1718537;82;20912;-75
2021/05/15 06:42:37;;;;;;;3.02;2.30;;;;;;;16.10;62.50;97461.33;1718433;82;21546;-75
2021/05/15 06:45:06;;;;;;;3.33;2.40;;;;;;;16.33;61.89;97456.41;1718330;83;20845;-75
2021/05/15 06:47:32;;;;;;;3.40;2.42;;;;;;;16.44;59.59;97459.55;1718020;83;21052;-75
2021/05/15 06:49:58;;;;;;;3.40;2.20;;;;;;;16.35;59.69;97452.20;1690043;83;20948;-74
2021/05/15 06:52:24;;;;;;;6.47;3.62;;;;;;;16.39;59.42;97451.52;1718440;83;21001;-74
2021/05/15 06:54:50;;;;;;;7.30;2.45;;;;;;;16.52;60.25;97445.02;1718339;83;21872;-74
2021/05/15 06:57:17;;;;;;;7.80;5.08;;;;;;;16.72;59.89;97453.03;1718571;83;20983;-74
2021/05/15 06:59:43;;;;;;;4.25;2.83;;;;;;;17.10;58.66;97444.69;1718311;83;20999;-75
2021/05/15 07:02:09;;;;;;;3.50;2.50;;;;;;;17.68;56.91;97442.78;1718333;82;20896;-75
2021/05/15 07:04:35;;;;;;;2.87;2.50;;;;;;;17.91;52.65;97440.45;1718496;83;21102;-75
2021/05/15 07:07:01;;;;;;;3.05;2.00;;;;;;;17.97;54.78;97439.91;1689954;83;20999;-74
2021/05/15 07:09:27;;;;;;;2.90;2.00;;;;;;;18.14;54.09;97437.51;1718368;83;20869;-75
2021/05/15 07:11:53;;;;;;;4.60;2.45;;;;;;;18.23;54.38;97434.08;1718449;83;20849;-75
2021/05/15 07:14:19;;;;;;;5.60;4.05;;;;;;;18.41;53.59;97438.74;1702822;83;21510;-75
2021/05/15 07:16:45;;;;;;;3.75;2.85;;;;;;;18.47;51.45;97436.58;1701488;84;20890;-75
2021/05/15 07:19:11;;;;;;;5.28;3.52;;;;;;;18.64;50.08;97432.20;1701561;84;21242;-74
2021/05/15 07:21:37;;;;;;;9.50;4.92;;;;;;;19.18;50.67;97434.57;1701431;84;20906;-75
2021/05/15 07:24:04;;;;;;;4.62;2.00;;;;;;;19.63;49.62;97434.25;1701531;84;21014;-75
2021/05/15 07:26:30;;;;;;;7.10;1.90;;;;;;;20.16;48.59;97434.78;1701565;84;21024;-75
2021/05/15 07:28:56;;;;;;;16.67;3.25;;;;;;;20.48;48.11;97436.16;1701535;83;21143;-75
2021/05/15 07:31:22;;;;;;;3.98;2.60;;;;;;;20.97;48.61;97437.83;1701559;84;21284;-75
2021/05/15 07:33:48;;;;;;;5.20;2.95;;;;;;;21.54;46.34;97438.20;1701579;83;20925;-75
2021/05/15 07:36:14;;;;;;;3.83;2.10;;;;;;;22.04;43.29;97441.81;1701576;84;20941;-75
2021/05/15 07:38:41;;;;;;;5.47;2.05;;;;;;;21.93;41.23;97443.81;1701493;84;20933;-75
2021/05/15 07:41:07;;;;;;;3.87;3.22;;;;;;;22.13;40.41;97439.63;1701832;84;21069;-75
2021/05/15 07:43:35;;;;;;;6.53;4.22;;;;;;;22.31;41.45;97439.94;1701691;83;21259;-75
2021/05/15 07:46:01;;;;;;;3.65;2.90;;;;;;;22.85;40.26;97438.77;1675646;84;21046;-76
2021/05/15 07:48:38;;;;;;;5.00;1.90;;;;;;;22.91;40.06;97439.46;1701440;83;21103;-76
2021/05/15 07:51:00;;;;;;;3.35;2.37;;;;;;;23.03;39.30;97434.27;1675216;84;21057;-75
2021/05/15 07:53:26;;;;;;;2.75;1.47;;;;;;;23.66;39.48;97424.34;1701492;84;21049;-75
2021/05/15 07:55:52;;;;;;;2.30;1.20;;;;;;;24.05;37.47;97432.42;1701425;84;21069;-75
2021/05/15 07:58:18;;;;;;;3.15;1.40;;;;;;;24.33;35.74;97429.70;1701521;84;20969;-75
2021/05/15 08:00:45;;;;;;;2.47;1.60;;;;;;;23.94;35.32;97427.98;1701477;83;21049;-75
2021/05/15 08:03:11;;;;;;;1.90;1.25;;;;;;;24.05;34.33;97431.05;1701529;84;21018;-75
2021/05/15 08:05:37;;;;;;;4.62;1.30;;;;;;;24.34;36.29;97429.31;1701712;84;21033;-75
2021/05/15 08:08:03;;;;;;;5.10;1.27;;;;;;;24.84;33.16;97427.46;1701503;84;20889;-75
2021/05/15 08:10:30;;;;;;;4.10;0.90;;;;;;;24.99;34.62;97431.30;1701595;84;20994;-75
2021/05/15 08:12:58;;;;;;;1.00;0.82;;;;;;;25.09;33.12;97434.54;1705304;83;21000;-75
2021/05/15 08:15:24;;;;;;;;;;;;;;;25.32;33.30;97430.88;1720472;83;20994;-76
2021/05/15 08:17:51;;;;;;;2.90;1.00;;;;;;;25.37;30.93;97438.01;1718400;82;20176;-76
2021/05/15 08:20:17;;;;;;;5.22;1.98;;;;;;;25.57;29.70;97441.45;1690184;83;21039;-76
2021/05/15 08:22:43;;;;;;;3.22;2.90;;;;;;;25.08;30.15;97435.73;1689890;83;21432;-76
2021/05/15 08:25:10;;;;;;;4.85;2.00;;;;;;;24.48;29.27;97442.48;1718255;82;20960;-76
2021/05/15 08:27:38;;;;;;;2.92;2.35;;;;;;;25.53;31.99;97445.39;1718657;82;20956;-76
2021/05/15 08:30:08;;;;;;;7.47;2.90;;;;;;;26.18;31.03;97444.34;1718136;82;20976;-77
2021/05/15 08:32:34;;;;;;;4.40;3.60;;;;;;;26.75;31.14;97448.50;1717374;83;21191;-77
2021/05/15 08:35:01;;;;;;;3.10;0.98;;;;;;;26.47;26.36;97446.53;1718219;83;21550;-77
2021/05/15 08:37:27;;;;;;;2.55;1.00;;;;;;;24.60;27.57;97443.53;1718270;82;21087;-77
2021/05/15 08:39:53;;;;;;;2.85;1.02;;;;;;;25.22;29.86;97440.75;1718391;83;21118;-76
2021/05/15 08:42:20;;;;;;;2.87;1.10;;;;;;;26.25;29.97;97442.95;1718261;82;21527;-76
2021/05/15 08:44:47;;;;;;;1.52;0.82;;;;;;;26.96;28.49;97435.13;1718289;82;21262;-77
2021/05/15 08:47:16;;;;;;;1.32;1.00;;;;;;;26.28;28.57;97437.20;1718508;83;20925;-77
2021/05/15 08:49:44;;;;;;;2.30;0.72;;;;;;;26.70;28.30;97439.95;1717922;83;20929;-77
2021/05/15 08:52:10;;;;;;;2.35;1.17;;;;;;;26.52;27.36;97447.53;1718519;83;21078;-76
2021/05/15 08:54:36;;;;;;;2.00;0.98;;;;;;;26.61;29.41;97439.58;1718353;83;21063;-76
2021/05/15 08:57:02;;;;;;;1.35;0.80;;;;;;;25.68;29.24;97446.23;1718317;82;21900;-76
2021/05/15 08:59:28;;;;;;;1.87;1.12;;;;;;;24.82;30.54;97441.70;1718162;82;21087;-76
2021/05/15 09:01:55;;;;;;;1.62;1.00;;;;;;;24.67;31.08;97443.59;1718302;83;20991;-76
2021/05/15 09:04:25;;;;;;;1.67;1.10;;;;;;;23.36;31.50;97445.34;1718488;82;20992;-76
2021/05/15 09:06:51;;;;;;;3.70;1.62;;;;;;;22.78;33.64;97451.86;1718208;83;20976;-75
2021/05/15 09:09:17;;;;;;;4.53;1.70;;;;;;;22.15;35.41;97451.11;1718198;83;21237;-75
2021/05/15 09:11:43;;;;;;;3.50;1.10;;;;;;;21.53;37.77;97453.11;1718326;82;21035;-75
2021/05/15 09:14:19;;;;;;;1.77;1.17;;;;;;;21.56;36.05;97451.82;1728965;82;20955;-75
2021/05/15 09:16:52;;;;;;;4.80;1.80;;;;;;;21.73;35.90;97447.80;1736971;82;20908;-76
2021/05/15 09:19:24;;;;;;;3.83;1.77;;;;;;;21.49;38.00;97439.86;1736407;82;21039;-75
2021/05/15 09:22:02;;;;;;;4.22;1.80;;;;;;;21.15;38.71;97446.45;1737067;82;21243;-75
2021/05/15 09:24:36;;;;;;;;;;;;;;;21.71;38.22;97446.00;1739465;82;21059;-76
2021/05/15 09:27:06;;;;;;;5.35;1.80;;;;;;;20.87;39.19;97448.04;1736960;82;20143;-75
2021/05/15 09:29:47;;;;;;;2.45;1.77;;;;;;;21.28;38.58;97452.66;1736988;81;20988;-75
2021/05/15 09:32:15;;;;;;;2.85;1.95;;;;;;;21.39;38.56;97443.43;1736987;82;20967;-76
2021/05/15 09:34:47;;;;;;;3.47;1.80;;;;;;;20.25;40.46;97453.30;1736888;82;21254;-75
2021/05/15 09:37:13;;;;;;;3.55;1.85;;;;;;;20.69;39.90;97448.23;1736144;82;20984;-75
2021/05/15 09:39:39;;;;;;;10.15;2.05;;;;;;;20.46;40.71;97446.72;1712035;82;20935;-75
2021/05/15 09:42:08;;;;;;;2.72;1.70;;;;;;;19.88;41.77;97440.97;1736972;82;20915;-76
2021/05/15 09:44:34;;;;;;;1.70;1.50;;;;;;;20.46;40.33;97442.02;1736923;82;21427;-75
2021/05/15 09:47:00;;;;;;;2.33;1.92;;;;;;;20.25;40.92;97440.09;1711913;82;21623;-75
2021/05/15 09:49:28;;;;;;;7.87;2.27;;;;;;;19.98;41.40;97440.43;1736808;82;21043;-75
2021/05/15 09:52:04;;;;;;;4.97;2.85;;;;;;;20.05;41.56;97443.94;1737218;81;20944;-75
2021/05/15 09:54:39;;;;;;;4.70;2.37;;;;;;;20.66;41.05;97444.80;1736948;82;21538;-77
2021/05/15 09:57:08;;;;;;;2.70;1.80;;;;;;;21.68;39.58;97439.81;1736981;82;21019;-75
2021/05/15 09:59:38;;;;;;;3.25;1.85;;;;;;;20.77;40.71;97439.77;1736841;82;21527;-76
2021/05/15 10:02:09;;;;;;;2.33;1.90;;;;;;;20.34;41.39;97444.03;1736808;82;21004;-75
2021/05/15 10:04:35;;;;;;;7.05;2.40;;;;;;;19.85;42.75;97444.44;1736985;82;21471;-75
2021/05/15 10:07:01;;;;;;;5.42;2.30;;;;;;;19.90;42.61;97444.15;1736928;82;20987;-75
2021/05/15 10:09:35;;;;;;;8.18;5.10;;;;;;;20.05;42.53;97438.44;1737420;81;20967;-75
2021/05/15 10:12:03;;;;;;;10.30;4.10;;;;;;;20.35;42.29;97439.58;1736956;82;21164;-75
2021/05/15 10:14:30;;;;;;;15.78;2.83;;;;;;;21.79;40.59;97439.45;1725565;82;21547;-75
2021/05/15 10:16:56;;;;;;;6.62;2.17;;;;;;;21.49;41.11;97435.73;1718168;82;20945;-75
2021/05/15 10:19:22;;;;;;;5.37;2.25;;;;;;;21.20;41.03;97431.61;1718144;83;20992;-75
2021/05/15 10:21:48;;;;;;;3.08;2.20;;;;;;;20.55;41.66;97433.56;1718420;82;20972;-75
2021/05/15 10:24:27;;;;;;;2.98;2.22;;;;;;;20.10;43.05;97431.30;1718203;82;21862;-76
2021/05/15 10:27:00;;;;;;;3.62;2.00;;;;;;;19.98;42.35;97428.85;1718204;83;20968;-76
2021/05/15 10:29:42;;;;;;;4.12;1.95;;;;;;;19.73;42.62;97428.22;1690425;83;21502;-75
2021/05/15 10:32:21;;;;;;;2.75;1.87;;;;;;;19.84;42.91;97426.34;1718279;82;21065;-75
2021/05/15 10:35:03;;;;;;;3.10;1.95;;;;;;;19.91;43.34;97421.00;1716223;83;21044;-76
2021/05/15 10:37:38;;;;;;;6.50;2.55;;;;;;;19.90;42.69;97416.08;1718267;82;21267;-75
2021/05/15 10:40:19;;;;;;;2.40;2.00;;;;;;;21.19;41.36;97416.21;1717442;83;21027;-75
2021/05/15 10:42:45;;;;;;;3.67;1.82;;;;;;;21.57;40.84;97423.67;1716948;83;20956;-75
2021/05/15 10:45:12;;;;;;;3.33;1.92;;;;;;;22.08;38.54;97417.89;1718401;83;20885;-75
2021/05/15 10:47:42;;;;;;;4.55;1.77;;;;;;;22.08;38.24;97413.75;1718174;82;21012;-75
2021/05/15 10:50:22;;;;;;;4.65;1.98;;;;;;;21.08;38.29;97410.50;1718184;82;21107;-76
2021/05/15 10:52:50;;;;;;;3.37;1.65;;;;;;;20.88;40.07;97407.53;1718492;83;21146;-75
2021/05/15 10:55:35;;;;;;;6.03;1.83;;;;;;;20.42;40.87;97403.95;1718413;82;20964;-75
2021/05/15 10:58:13;;;;;;;3.30;1.90;;;;;;;20.12;41.69;97405.03;1718177;83;21075;-75
2021/05/15 11:00:40;;;;;;;3.27;2.10;;;;;;;20.15;42.28;97401.56;1718656;83;21032;-75
2021/05/15 11:03:06;;;;;;;4.95;1.90;;;;;;;20.01;41.64;97402.62;1718145;82;21861;-75
2021/05/15 11:05:42;;;;;;;2.85;2.15;;;;;;;20.11;42.10;97395.20;1718192;82;20871;-75
2021/05/15 11:08:25;;;;;;;3.50;2.40;;;;;;;19.89;42.76;97393.08;1718099;82;21063;-76
2021/05/15 11:10:52;;;;;;;3.62;2.00;;;;;;;19.70;43.49;97397.91;1718003;83;21043;-75
2021/05/15 11:13:18;;;;;;;2.87;2.12;;;;;;;19.65;43.65;97393.49;1689775;83;21060;-75
2021/05/15 11:15:44;;;;;;;5.20;2.37;;;;;;;19.72;43.65;97395.02;1736500;82;21253;-75
2021/05/15 11:18:10;;;;;;;2.37;2.02;;;;;;;19.72;44.14;97401.09;1736816;82;21486;-75
2021/05/15 11:20:45;;;;;;;2.85;2.00;;;;;;;19.56;44.30;97396.13;1737080;81;20880;-75
2021/05/15 11:23:12;;;;;;;2.50;2.10;;;;;;;19.64;44.61;97395.20;1736575;82;21046;-75
2021/05/15 11:25:39;;;;;;;3.25;2.15;;;;;;;20.12;43.02;97394.03;1736931;82;21062;-75
2021/05/15 11:28:08;;;;;;;11.95;3.30;;;;;;;22.65;39.29;97394.70;1736984;81;21771;-75
2021/05/15 11:30:36;;;;;;;;;;;;;;;22.88;39.63;97391.85;1739457;81;20888;-75
2021/05/15 11:33:06;;;;;;;;;;;;;;;24.16;38.12;97389.61;1738825;82;20535;-77
2021/05/15 11:35:44;;;;;;;4.55;2.47;;;;;;;25.40;35.38;97385.35;1737070;82;20223;-75